sensor_id;sensor_type;location;lat;lon;timestamp;P1;durP1;ratioP1;P2;durP2;ratioP2
20322;SDS011;10319;52.206;20.996;2024-03-08T00:00:45;29.60;;;11.47;;
20322;SDS011;10319;52.206;20.996;2024-03-08T00:03:10;33.00;;;12.50;;
20322;SDS011;10319;52.206;20.996;2024-03-08T00:05:36;26.73;;;10.40;;
20322;SDS011;10319;52.206;20.996;2024-03-08T00:08:03;24.80;;;9.30;;
20322;SDS011;10319;52.206;20.996;2024-03-08T00:10:29;24.90;;;8.97;;
20322;SDS011;10319;52.206;20.996;2024-03-08T00:12:54;23.93;;;8.87;;
20322;SDS011;10319;52.206;20.996;2024-03-08T00:15:19;25.67;;;9.17;;
20322;SDS011;10319;52.206;20.996;2024-03-08T00:17:45;26.57;;;10.13;;
20322;SDS011;10319;52.206;20.996;2024-03-08T00:20:11;22.17;;;8.47;;
20322;SDS011;10319;52.206;20.996;2024-03-08T00:22:36;26.73;;;9.03;;
20322;SDS011;10319;52.206;20.996;2024-03-08T00:25:05;22.00;;;8.63;;
20322;SDS011;10319;52.206;20.996;2024-03-08T00:27:33;28.53;;;10.73;;
20322;SDS011;10319;52.206;20.996;2024-03-08T00:29:59;33.10;;;11.73;;
20322;SDS011;10319;52.206;20.996;2024-03-08T00:32:25;29.77;;;10.87;;
20322;SDS011;10319;52.206;20.996;2024-03-08T00:34:50;27.00;;;10.67;;
20322;SDS011;10319;52.206;20.996;2024-03-08T00:37:19;28.40;;;10.10;;
20322;SDS011;10319;52.206;20.996;2024-03-08T00:39:44;27.20;;;9.43;;
20322;SDS011;10319;52.206;20.996;2024-03-08T00:42:10;24.27;;;9.33;;
20322;SDS011;10319;52.206;20.996;2024-03-08T00:44:35;26.03;;;10.60;;
20322;SDS011;10319;52.206;20.996;2024-03-08T00:47:00;25.03;;;9.23;;
20322;SDS011;10319;52.206;20.996;2024-03-08T00:49:27;24.33;;;9.33;;
20322;SDS011;10319;52.206;20.996;2024-03-08T00:51:52;28.40;;;11.07;;
20322;SDS011;10319;52.206;20.996;2024-03-08T00:54:17;25.77;;;10.53;;
20322;SDS011;10319;52.206;20.996;2024-03-08T00:56:42;26.73;;;10.13;;
20322;SDS011;10319;52.206;20.996;2024-03-08T00:59:07;25.77;;;9.40;;
20322;SDS011;10319;52.206;20.996;2024-03-08T01:01:33;24.13;;;8.87;;
20322;SDS011;10319;52.206;20.996;2024-03-08T01:03:58;25.17;;;9.53;;
20322;SDS011;10319;52.206;20.996;2024-03-08T01:06:23;24.53;;;8.50;;
20322;SDS011;10319;52.206;20.996;2024-03-08T01:08:49;24.03;;;8.93;;
20322;SDS011;10319;52.206;20.996;2024-03-08T01:11:17;23.53;;;9.00;;
20322;SDS011;10319;52.206;20.996;2024-03-08T01:13:43;23.70;;;8.80;;
20322;SDS011;10319;52.206;20.996;2024-03-08T01:16:08;23.90;;;8.30;;
20322;SDS011;10319;52.206;20.996;2024-03-08T01:18:36;24.70;;;8.63;;
20322;SDS011;10319;52.206;20.996;2024-03-08T01:21:02;24.83;;;9.43;;
20322;SDS011;10319;52.206;20.996;2024-03-08T01:23:27;23.27;;;9.10;;
20322;SDS011;10319;52.206;20.996;2024-03-08T01:25:52;22.83;;;8.17;;
20322;SDS011;10319;52.206;20.996;2024-03-08T01:28:22;23.83;;;8.67;;
20322;SDS011;10319;52.206;20.996;2024-03-08T01:30:47;23.10;;;8.43;;
20322;SDS011;10319;52.206;20.996;2024-03-08T01:33:14;23.67;;;8.67;;
20322;SDS011;10319;52.206;20.996;2024-03-08T01:35:39;20.20;;;7.40;;
20322;SDS011;10319;52.206;20.996;2024-03-08T01:38:06;22.90;;;8.47;;
20322;SDS011;10319;52.206;20.996;2024-03-08T01:40:31;25.43;;;8.97;;
20322;SDS011;10319;52.206;20.996;2024-03-08T01:42:56;23.70;;;8.40;;
20322;SDS011;10319;52.206;20.996;2024-03-08T01:45:22;24.07;;;9.30;;
20322;SDS011;10319;52.206;20.996;2024-03-08T01:47:47;27.97;;;10.47;;
20322;SDS011;10319;52.206;20.996;2024-03-08T01:50:13;24.17;;;8.80;;
20322;SDS011;10319;52.206;20.996;2024-03-08T01:52:39;23.87;;;9.03;;
20322;SDS011;10319;52.206;20.996;2024-03-08T01:55:04;23.70;;;8.27;;
20322;SDS011;10319;52.206;20.996;2024-03-08T01:57:32;25.40;;;9.40;;
20322;SDS011;10319;52.206;20.996;2024-03-08T02:00:01;21.87;;;7.37;;
20322;SDS011;10319;52.206;20.996;2024-03-08T02:02:28;22.60;;;8.10;;
20322;SDS011;10319;52.206;20.996;2024-03-08T02:04:56;24.77;;;8.27;;
20322;SDS011;10319;52.206;20.996;2024-03-08T02:07:21;22.03;;;7.63;;
20322;SDS011;10319;52.206;20.996;2024-03-08T02:09:47;23.97;;;7.90;;
20322;SDS011;10319;52.206;20.996;2024-03-08T02:12:12;25.07;;;8.83;;
20322;SDS011;10319;52.206;20.996;2024-03-08T02:14:37;25.67;;;9.27;;
20322;SDS011;10319;52.206;20.996;2024-03-08T02:17:02;26.60;;;8.77;;
20322;SDS011;10319;52.206;20.996;2024-03-08T02:19:28;23.50;;;8.63;;
20322;SDS011;10319;52.206;20.996;2024-03-08T02:21:53;25.07;;;8.90;;
20322;SDS011;10319;52.206;20.996;2024-03-08T02:24:18;21.97;;;8.07;;
20322;SDS011;10319;52.206;20.996;2024-03-08T02:26:44;26.50;;;9.17;;
20322;SDS011;10319;52.206;20.996;2024-03-08T02:29:09;24.03;;;9.03;;
20322;SDS011;10319;52.206;20.996;2024-03-08T02:31:34;22.93;;;8.80;;
20322;SDS011;10319;52.206;20.996;2024-03-08T02:33:59;22.67;;;8.33;;
20322;SDS011;10319;52.206;20.996;2024-03-08T02:36:25;24.47;;;9.20;;
20322;SDS011;10319;52.206;20.996;2024-03-08T02:38:50;24.07;;;8.70;;
20322;SDS011;10319;52.206;20.996;2024-03-08T02:41:15;23.57;;;8.53;;
20322;SDS011;10319;52.206;20.996;2024-03-08T02:43:41;24.67;;;9.70;;
20322;SDS011;10319;52.206;20.996;2024-03-08T02:46:06;21.60;;;8.27;;
20322;SDS011;10319;52.206;20.996;2024-03-08T02:48:31;22.40;;;8.17;;
20322;SDS011;10319;52.206;20.996;2024-03-08T02:50:56;25.83;;;9.37;;
20322;SDS011;10319;52.206;20.996;2024-03-08T02:53:22;27.47;;;9.40;;
20322;SDS011;10319;52.206;20.996;2024-03-08T02:55:47;23.57;;;8.80;;
20322;SDS011;10319;52.206;20.996;2024-03-08T02:58:12;24.27;;;8.87;;
20322;SDS011;10319;52.206;20.996;2024-03-08T03:00:39;24.43;;;8.80;;
20322;SDS011;10319;52.206;20.996;2024-03-08T03:03:06;25.47;;;9.50;;
20322;SDS011;10319;52.206;20.996;2024-03-08T03:05:31;24.37;;;8.97;;
20322;SDS011;10319;52.206;20.996;2024-03-08T03:07:56;24.13;;;8.50;;
20322;SDS011;10319;52.206;20.996;2024-03-08T03:10:23;25.43;;;8.80;;
20322;SDS011;10319;52.206;20.996;2024-03-08T03:12:48;26.50;;;10.20;;
20322;SDS011;10319;52.206;20.996;2024-03-08T03:15:14;35.30;;;13.17;;
20322;SDS011;10319;52.206;20.996;2024-03-08T03:17:39;34.00;;;14.03;;
20322;SDS011;10319;52.206;20.996;2024-03-08T03:20:07;28.33;;;11.00;;
20322;SDS011;10319;52.206;20.996;2024-03-08T03:22:37;28.23;;;10.07;;
20322;SDS011;10319;52.206;20.996;2024-03-08T03:25:03;25.97;;;10.10;;
20322;SDS011;10319;52.206;20.996;2024-03-08T03:27:31;24.37;;;9.60;;
20322;SDS011;10319;52.206;20.996;2024-03-08T03:29:57;26.77;;;9.77;;
20322;SDS011;10319;52.206;20.996;2024-03-08T03:32:23;27.93;;;10.87;;
20322;SDS011;10319;52.206;20.996;2024-03-08T03:34:48;27.37;;;10.00;;
20322;SDS011;10319;52.206;20.996;2024-03-08T03:37:13;25.23;;;9.73;;
20322;SDS011;10319;52.206;20.996;2024-03-08T03:39:39;25.00;;;9.17;;
20322;SDS011;10319;52.206;20.996;2024-03-08T03:42:17;33.17;;;11.60;;
20322;SDS011;10319;52.206;20.996;2024-03-08T03:44:49;25.57;;;9.57;;
20322;SDS011;10319;52.206;20.996;2024-03-08T03:47:14;25.93;;;10.10;;
20322;SDS011;10319;52.206;20.996;2024-03-08T03:49:43;25.90;;;10.63;;
20322;SDS011;10319;52.206;20.996;2024-03-08T03:52:08;28.13;;;10.93;;
20322;SDS011;10319;52.206;20.996;2024-03-08T03:54:34;25.80;;;9.47;;
20322;SDS011;10319;52.206;20.996;2024-03-08T03:56:59;23.80;;;9.10;;
20322;SDS011;10319;52.206;20.996;2024-03-08T03:59:25;28.73;;;10.10;;
20322;SDS011;10319;52.206;20.996;2024-03-08T04:01:50;29.47;;;10.53;;
20322;SDS011;10319;52.206;20.996;2024-03-08T04:04:15;27.57;;;10.43;;
20322;SDS011;10319;52.206;20.996;2024-03-08T04:06:41;25.73;;;10.37;;
20322;SDS011;10319;52.206;20.996;2024-03-08T04:09:06;27.33;;;10.40;;
20322;SDS011;10319;52.206;20.996;2024-03-08T04:11:32;27.80;;;9.77;;
20322;SDS011;10319;52.206;20.996;2024-03-08T04:13:57;28.17;;;10.33;;
20322;SDS011;10319;52.206;20.996;2024-03-08T04:16:22;23.80;;;9.77;;
20322;SDS011;10319;52.206;20.996;2024-03-08T04:18:48;26.23;;;9.07;;
20322;SDS011;10319;52.206;20.996;2024-03-08T04:21:14;24.37;;;9.27;;
20322;SDS011;10319;52.206;20.996;2024-03-08T04:23:39;26.53;;;11.23;;
20322;SDS011;10319;52.206;20.996;2024-03-08T04:26:04;28.37;;;10.93;;
20322;SDS011;10319;52.206;20.996;2024-03-08T04:28:31;29.43;;;12.23;;
20322;SDS011;10319;52.206;20.996;2024-03-08T04:30:56;30.40;;;11.63;;
20322;SDS011;10319;52.206;20.996;2024-03-08T04:33:21;26.57;;;10.57;;
20322;SDS011;10319;52.206;20.996;2024-03-08T04:35:48;27.10;;;10.77;;
20322;SDS011;10319;52.206;20.996;2024-03-08T04:38:13;28.47;;;11.47;;
20322;SDS011;10319;52.206;20.996;2024-03-08T04:40:38;29.77;;;11.33;;
20322;SDS011;10319;52.206;20.996;2024-03-08T04:43:04;28.60;;;10.93;;
20322;SDS011;10319;52.206;20.996;2024-03-08T04:45:30;27.83;;;11.43;;
20322;SDS011;10319;52.206;20.996;2024-03-08T04:47:55;27.83;;;11.17;;
20322;SDS011;10319;52.206;20.996;2024-03-08T04:50:20;31.50;;;12.30;;
20322;SDS011;10319;52.206;20.996;2024-03-08T04:52:45;27.63;;;11.17;;
20322;SDS011;10319;52.206;20.996;2024-03-08T04:55:11;31.03;;;12.40;;
20322;SDS011;10319;52.206;20.996;2024-03-08T04:57:36;30.53;;;11.93;;
20322;SDS011;10319;52.206;20.996;2024-03-08T05:00:04;31.10;;;11.87;;
20322;SDS011;10319;52.206;20.996;2024-03-08T05:02:36;28.07;;;10.93;;
20322;SDS011;10319;52.206;20.996;2024-03-08T05:05:03;29.60;;;11.90;;
20322;SDS011;10319;52.206;20.996;2024-03-08T05:07:31;31.17;;;11.97;;
20322;SDS011;10319;52.206;20.996;2024-03-08T05:09:56;27.70;;;11.17;;
20322;SDS011;10319;52.206;20.996;2024-03-08T05:12:22;29.23;;;11.73;;
20322;SDS011;10319;52.206;20.996;2024-03-08T05:14:47;30.50;;;11.73;;
20322;SDS011;10319;52.206;20.996;2024-03-08T05:17:15;31.77;;;12.60;;
20322;SDS011;10319;52.206;20.996;2024-03-08T05:19:41;29.03;;;11.67;;
20322;SDS011;10319;52.206;20.996;2024-03-08T05:22:07;30.47;;;11.97;;
20322;SDS011;10319;52.206;20.996;2024-03-08T05:24:32;30.30;;;11.80;;
20322;SDS011;10319;52.206;20.996;2024-03-08T05:26:58;30.57;;;11.33;;
20322;SDS011;10319;52.206;20.996;2024-03-08T05:29:25;32.17;;;11.47;;
20322;SDS011;10319;52.206;20.996;2024-03-08T05:31:51;30.07;;;12.03;;
20322;SDS011;10319;52.206;20.996;2024-03-08T05:34:19;34.57;;;12.80;;
20322;SDS011;10319;52.206;20.996;2024-03-08T05:36:46;30.37;;;11.73;;
20322;SDS011;10319;52.206;20.996;2024-03-08T05:39:12;28.00;;;11.40;;
20322;SDS011;10319;52.206;20.996;2024-03-08T05:41:38;30.57;;;12.13;;
20322;SDS011;10319;52.206;20.996;2024-03-08T05:44:04;27.77;;;10.57;;
20322;SDS011;10319;52.206;20.996;2024-03-08T05:46:29;29.10;;;11.10;;
20322;SDS011;10319;52.206;20.996;2024-03-08T05:48:55;28.50;;;10.93;;
20322;SDS011;10319;52.206;20.996;2024-03-08T05:51:20;28.60;;;10.83;;
20322;SDS011;10319;52.206;20.996;2024-03-08T05:53:46;26.30;;;10.83;;
20322;SDS011;10319;52.206;20.996;2024-03-08T05:56:12;30.10;;;11.93;;
20322;SDS011;10319;52.206;20.996;2024-03-08T05:58:37;29.50;;;11.67;;
20322;SDS011;10319;52.206;20.996;2024-03-08T06:01:02;28.93;;;11.63;;
20322;SDS011;10319;52.206;20.996;2024-03-08T06:03:27;30.80;;;11.07;;
20322;SDS011;10319;52.206;20.996;2024-03-08T06:05:52;26.97;;;11.57;;
20322;SDS011;10319;52.206;20.996;2024-03-08T06:08:18;28.57;;;11.30;;
20322;SDS011;10319;52.206;20.996;2024-03-08T06:10:44;29.37;;;11.17;;
20322;SDS011;10319;52.206;20.996;2024-03-08T06:13:09;26.30;;;10.30;;
20322;SDS011;10319;52.206;20.996;2024-03-08T06:15:37;27.10;;;10.40;;
20322;SDS011;10319;52.206;20.996;2024-03-08T06:18:02;24.80;;;9.90;;
20322;SDS011;10319;52.206;20.996;2024-03-08T06:20:27;25.43;;;10.30;;
20322;SDS011;10319;52.206;20.996;2024-03-08T06:22:53;28.20;;;10.23;;
20322;SDS011;10319;52.206;20.996;2024-03-08T06:25:18;28.37;;;10.80;;
20322;SDS011;10319;52.206;20.996;2024-03-08T06:27:44;26.20;;;10.50;;
20322;SDS011;10319;52.206;20.996;2024-03-08T06:30:11;28.43;;;11.00;;
20322;SDS011;10319;52.206;20.996;2024-03-08T06:32:36;27.80;;;10.83;;
20322;SDS011;10319;52.206;20.996;2024-03-08T06:35:02;36.77;;;14.53;;
20322;SDS011;10319;52.206;20.996;2024-03-08T06:37:31;37.30;;;15.10;;
20322;SDS011;10319;52.206;20.996;2024-03-08T06:39:56;38.70;;;16.30;;
20322;SDS011;10319;52.206;20.996;2024-03-08T06:42:22;39.00;;;16.03;;
20322;SDS011;10319;52.206;20.996;2024-03-08T06:44:47;39.40;;;15.70;;
20322;SDS011;10319;52.206;20.996;2024-03-08T06:47:15;39.20;;;15.90;;
20322;SDS011;10319;52.206;20.996;2024-03-08T06:49:44;38.27;;;15.90;;
20322;SDS011;10319;52.206;20.996;2024-03-08T06:52:10;42.47;;;17.83;;
20322;SDS011;10319;52.206;20.996;2024-03-08T06:54:35;42.67;;;17.77;;
20322;SDS011;10319;52.206;20.996;2024-03-08T06:57:04;41.17;;;17.47;;
20322;SDS011;10319;52.206;20.996;2024-03-08T06:59:30;42.10;;;17.77;;
20322;SDS011;10319;52.206;20.996;2024-03-08T07:01:55;40.50;;;16.80;;
20322;SDS011;10319;52.206;20.996;2024-03-08T07:04:20;35.33;;;15.80;;
20322;SDS011;10319;52.206;20.996;2024-03-08T07:06:46;36.30;;;14.40;;
20322;SDS011;10319;52.206;20.996;2024-03-08T07:09:15;34.97;;;14.43;;
20322;SDS011;10319;52.206;20.996;2024-03-08T07:11:41;35.27;;;14.33;;
20322;SDS011;10319;52.206;20.996;2024-03-08T07:14:07;34.87;;;14.87;;
20322;SDS011;10319;52.206;20.996;2024-03-08T07:16:32;36.40;;;13.97;;
20322;SDS011;10319;52.206;20.996;2024-03-08T07:18:57;37.07;;;14.37;;
20322;SDS011;10319;52.206;20.996;2024-03-08T07:21:23;35.23;;;14.27;;
20322;SDS011;10319;52.206;20.996;2024-03-08T07:23:49;30.53;;;13.03;;
20322;SDS011;10319;52.206;20.996;2024-03-08T07:26:35;35.33;;;13.87;;
20322;SDS011;10319;52.206;20.996;2024-03-08T07:29:00;31.57;;;12.77;;
20322;SDS011;10319;52.206;20.996;2024-03-08T07:31:25;31.27;;;12.40;;
20322;SDS011;10319;52.206;20.996;2024-03-08T07:33:51;31.90;;;11.87;;
20322;SDS011;10319;52.206;20.996;2024-03-08T07:36:18;28.90;;;11.07;;
20322;SDS011;10319;52.206;20.996;2024-03-08T07:38:43;29.40;;;11.20;;
20322;SDS011;10319;52.206;20.996;2024-03-08T07:41:08;27.33;;;10.97;;
20322;SDS011;10319;52.206;20.996;2024-03-08T07:43:33;26.90;;;10.57;;
20322;SDS011;10319;52.206;20.996;2024-03-08T07:45:59;28.77;;;10.90;;
20322;SDS011;10319;52.206;20.996;2024-03-08T07:48:24;27.00;;;10.63;;
20322;SDS011;10319;52.206;20.996;2024-03-08T07:50:49;27.70;;;10.33;;
20322;SDS011;10319;52.206;20.996;2024-03-08T07:53:15;25.07;;;9.77;;
20322;SDS011;10319;52.206;20.996;2024-03-08T07:55:40;30.33;;;10.43;;
20322;SDS011;10319;52.206;20.996;2024-03-08T07:58:07;25.03;;;10.27;;
20322;SDS011;10319;52.206;20.996;2024-03-08T08:00:34;25.73;;;9.83;;
20322;SDS011;10319;52.206;20.996;2024-03-08T08:03:01;21.57;;;7.67;;
20322;SDS011;10319;52.206;20.996;2024-03-08T08:05:26;22.03;;;7.60;;
20322;SDS011;10319;52.206;20.996;2024-03-08T08:07:52;19.90;;;6.50;;
20322;SDS011;10319;52.206;20.996;2024-03-08T08:10:18;21.73;;;7.77;;
20322;SDS011;10319;52.206;20.996;2024-03-08T08:12:46;21.17;;;7.60;;
20322;SDS011;10319;52.206;20.996;2024-03-08T08:15:11;19.33;;;6.53;;
20322;SDS011;10319;52.206;20.996;2024-03-08T08:17:37;19.43;;;6.83;;
20322;SDS011;10319;52.206;20.996;2024-03-08T08:20:03;21.27;;;7.03;;
20322;SDS011;10319;52.206;20.996;2024-03-08T08:22:30;20.63;;;7.10;;
20322;SDS011;10319;52.206;20.996;2024-03-08T08:24:55;18.43;;;6.70;;
20322;SDS011;10319;52.206;20.996;2024-03-08T08:27:20;20.87;;;6.77;;
20322;SDS011;10319;52.206;20.996;2024-03-08T08:29:46;20.07;;;6.37;;
20322;SDS011;10319;52.206;20.996;2024-03-08T08:32:11;24.27;;;8.90;;
20322;SDS011;10319;52.206;20.996;2024-03-08T08:34:36;24.37;;;8.97;;
20322;SDS011;10319;52.206;20.996;2024-03-08T08:37:01;23.90;;;8.93;;
20322;SDS011;10319;52.206;20.996;2024-03-08T08:39:27;23.80;;;8.40;;
20322;SDS011;10319;52.206;20.996;2024-03-08T08:41:52;23.60;;;8.47;;
20322;SDS011;10319;52.206;20.996;2024-03-08T08:44:18;22.50;;;7.50;;
20322;SDS011;10319;52.206;20.996;2024-03-08T08:46:43;23.73;;;8.47;;
20322;SDS011;10319;52.206;20.996;2024-03-08T08:49:08;23.27;;;7.67;;
20322;SDS011;10319;52.206;20.996;2024-03-08T08:51:36;20.23;;;7.37;;
20322;SDS011;10319;52.206;20.996;2024-03-08T08:54:01;22.97;;;8.07;;
20322;SDS011;10319;52.206;20.996;2024-03-08T08:56:27;20.93;;;7.80;;
20322;SDS011;10319;52.206;20.996;2024-03-08T08:58:53;22.23;;;8.17;;
20322;SDS011;10319;52.206;20.996;2024-03-08T09:01:19;20.17;;;7.07;;
20322;SDS011;10319;52.206;20.996;2024-03-08T09:03:44;19.47;;;6.83;;
20322;SDS011;10319;52.206;20.996;2024-03-08T09:06:12;19.90;;;7.00;;
20322;SDS011;10319;52.206;20.996;2024-03-08T09:08:38;25.73;;;8.57;;
20322;SDS011;10319;52.206;20.996;2024-03-08T09:11:03;20.70;;;8.00;;
20322;SDS011;10319;52.206;20.996;2024-03-08T09:13:28;21.10;;;6.80;;
20322;SDS011;10319;52.206;20.996;2024-03-08T09:15:53;19.43;;;6.63;;
20322;SDS011;10319;52.206;20.996;2024-03-08T09:18:19;18.33;;;5.77;;
20322;SDS011;10319;52.206;20.996;2024-03-08T09:20:44;17.00;;;5.73;;
20322;SDS011;10319;52.206;20.996;2024-03-08T09:23:09;17.53;;;5.50;;
20322;SDS011;10319;52.206;20.996;2024-03-08T09:25:35;18.37;;;6.07;;
20322;SDS011;10319;52.206;20.996;2024-03-08T09:28:00;18.27;;;6.13;;
20322;SDS011;10319;52.206;20.996;2024-03-08T09:30:25;21.40;;;7.10;;
20322;SDS011;10319;52.206;20.996;2024-03-08T09:32:50;20.70;;;7.50;;
20322;SDS011;10319;52.206;20.996;2024-03-08T09:35:16;19.30;;;6.63;;
20322;SDS011;10319;52.206;20.996;2024-03-08T09:37:41;22.67;;;8.03;;
20322;SDS011;10319;52.206;20.996;2024-03-08T09:40:06;20.43;;;7.47;;
20322;SDS011;10319;52.206;20.996;2024-03-08T09:42:34;19.57;;;7.60;;
20322;SDS011;10319;52.206;20.996;2024-03-08T09:45:02;18.37;;;6.10;;
20322;SDS011;10319;52.206;20.996;2024-03-08T09:47:29;17.93;;;6.20;;
20322;SDS011;10319;52.206;20.996;2024-03-08T09:49:58;17.17;;;5.60;;
20322;SDS011;10319;52.206;20.996;2024-03-08T09:52:23;16.73;;;5.47;;
20322;SDS011;10319;52.206;20.996;2024-03-08T09:54:49;16.97;;;5.93;;
20322;SDS011;10319;52.206;20.996;2024-03-08T09:57:14;16.87;;;5.47;;
20322;SDS011;10319;52.206;20.996;2024-03-08T09:59:40;15.80;;;5.00;;
20322;SDS011;10319;52.206;20.996;2024-03-08T10:02:05;19.07;;;6.27;;
20322;SDS011;10319;52.206;20.996;2024-03-08T10:04:31;18.83;;;6.10;;
20322;SDS011;10319;52.206;20.996;2024-03-08T10:07:00;19.53;;;6.43;;
20322;SDS011;10319;52.206;20.996;2024-03-08T10:09:26;19.33;;;6.53;;
20322;SDS011;10319;52.206;20.996;2024-03-08T10:11:56;19.20;;;6.43;;
20322;SDS011;10319;52.206;20.996;2024-03-08T10:14:21;18.43;;;5.97;;
20322;SDS011;10319;52.206;20.996;2024-03-08T10:16:46;15.13;;;4.93;;
20322;SDS011;10319;52.206;20.996;2024-03-08T10:19:11;21.37;;;6.07;;
20322;SDS011;10319;52.206;20.996;2024-03-08T10:21:47;16.83;;;5.60;;
20322;SDS011;10319;52.206;20.996;2024-03-08T10:24:12;15.97;;;5.73;;
20322;SDS011;10319;52.206;20.996;2024-03-08T10:26:38;17.20;;;5.33;;
20322;SDS011;10319;52.206;20.996;2024-03-08T10:29:04;16.50;;;5.57;;
20322;SDS011;10319;52.206;20.996;2024-03-08T10:31:29;19.17;;;6.80;;
20322;SDS011;10319;52.206;20.996;2024-03-08T10:33:57;18.80;;;6.53;;
20322;SDS011;10319;52.206;20.996;2024-03-08T10:36:22;18.50;;;6.30;;
20322;SDS011;10319;52.206;20.996;2024-03-08T10:38:51;17.67;;;6.20;;
20322;SDS011;10319;52.206;20.996;2024-03-08T10:41:18;18.00;;;6.80;;
20322;SDS011;10319;52.206;20.996;2024-03-08T10:43:52;21.77;;;7.80;;
20322;SDS011;10319;52.206;20.996;2024-03-08T10:46:29;18.57;;;6.70;;
20322;SDS011;10319;52.206;20.996;2024-03-08T10:48:55;19.47;;;6.20;;
20322;SDS011;10319;52.206;20.996;2024-03-08T10:51:23;18.13;;;6.30;;
20322;SDS011;10319;52.206;20.996;2024-03-08T10:53:49;18.97;;;6.43;;
20322;SDS011;10319;52.206;20.996;2024-03-08T10:56:16;20.23;;;6.80;;
20322;SDS011;10319;52.206;20.996;2024-03-08T10:58:41;19.33;;;7.13;;
20322;SDS011;10319;52.206;20.996;2024-03-08T11:01:07;23.67;;;8.10;;
20322;SDS011;10319;52.206;20.996;2024-03-08T11:08:54;18.73;;;6.90;;
20322;SDS011;10319;52.206;20.996;2024-03-08T11:11:30;18.83;;;6.73;;
20322;SDS011;10319;52.206;20.996;2024-03-08T11:13:56;16.67;;;5.83;;
20322;SDS011;10319;52.206;20.996;2024-03-08T11:18:49;19.20;;;6.27;;
20322;SDS011;10319;52.206;20.996;2024-03-08T11:21:15;20.83;;;7.30;;
20322;SDS011;10319;52.206;20.996;2024-03-08T11:23:42;19.33;;;7.10;;
20322;SDS011;10319;52.206;20.996;2024-03-08T11:26:21;19.30;;;6.20;;
20322;SDS011;10319;52.206;20.996;2024-03-08T11:28:49;19.20;;;6.43;;
20322;SDS011;10319;52.206;20.996;2024-03-08T11:31:23;22.43;;;7.50;;
20322;SDS011;10319;52.206;20.996;2024-03-08T11:33:49;18.33;;;6.60;;
20322;SDS011;10319;52.206;20.996;2024-03-08T11:36:24;25.17;;;7.93;;
20322;SDS011;10319;52.206;20.996;2024-03-08T11:38:50;18.53;;;6.73;;
20322;SDS011;10319;52.206;20.996;2024-03-08T11:41:18;17.47;;;6.17;;
20322;SDS011;10319;52.206;20.996;2024-03-08T11:43:44;15.47;;;5.27;;
20322;SDS011;10319;52.206;20.996;2024-03-08T11:46:10;18.63;;;6.70;;
20322;SDS011;10319;52.206;20.996;2024-03-08T11:48:37;17.40;;;6.30;;
20322;SDS011;10319;52.206;20.996;2024-03-08T11:51:03;15.83;;;5.23;;
20322;SDS011;10319;52.206;20.996;2024-03-08T11:53:29;15.73;;;5.00;;
20322;SDS011;10319;52.206;20.996;2024-03-08T11:56:05;15.37;;;4.67;;
20322;SDS011;10319;52.206;20.996;2024-03-08T11:58:30;16.73;;;5.77;;
20322;SDS011;10319;52.206;20.996;2024-03-08T12:01:02;18.13;;;6.03;;
20322;SDS011;10319;52.206;20.996;2024-03-08T12:03:29;17.67;;;5.83;;
20322;SDS011;10319;52.206;20.996;2024-03-08T12:05:57;16.73;;;5.70;;
20322;SDS011;10319;52.206;20.996;2024-03-08T12:08:24;15.80;;;5.37;;
20322;SDS011;10319;52.206;20.996;2024-03-08T12:10:53;15.97;;;4.90;;
20322;SDS011;10319;52.206;20.996;2024-03-08T12:13:20;16.67;;;4.87;;
20322;SDS011;10319;52.206;20.996;2024-03-08T12:15:46;14.70;;;4.40;;
20322;SDS011;10319;52.206;20.996;2024-03-08T12:18:12;12.77;;;3.93;;
20322;SDS011;10319;52.206;20.996;2024-03-08T12:20:38;15.83;;;5.30;;
20322;SDS011;10319;52.206;20.996;2024-03-08T12:23:04;16.47;;;5.90;;
20322;SDS011;10319;52.206;20.996;2024-03-08T12:25:31;14.70;;;4.80;;
20322;SDS011;10319;52.206;20.996;2024-03-08T12:27:56;17.17;;;5.80;;
20322;SDS011;10319;52.206;20.996;2024-03-08T12:30:25;16.97;;;5.67;;
20322;SDS011;10319;52.206;20.996;2024-03-08T12:32:55;16.70;;;5.90;;
20322;SDS011;10319;52.206;20.996;2024-03-08T12:35:22;17.77;;;6.47;;
20322;SDS011;10319;52.206;20.996;2024-03-08T12:37:50;17.40;;;5.70;;
20322;SDS011;10319;52.206;20.996;2024-03-08T12:40:18;17.73;;;6.10;;
20322;SDS011;10319;52.206;20.996;2024-03-08T12:42:44;17.33;;;6.00;;
20322;SDS011;10319;52.206;20.996;2024-03-08T12:45:09;17.33;;;5.73;;
20322;SDS011;10319;52.206;20.996;2024-03-08T12:47:35;15.83;;;5.63;;
20322;SDS011;10319;52.206;20.996;2024-03-08T12:50:01;15.50;;;5.67;;
20322;SDS011;10319;52.206;20.996;2024-03-08T12:52:26;16.27;;;6.17;;
20322;SDS011;10319;52.206;20.996;2024-03-08T12:54:51;16.57;;;5.60;;
20322;SDS011;10319;52.206;20.996;2024-03-08T12:57:16;17.30;;;6.60;;
20322;SDS011;10319;52.206;20.996;2024-03-08T12:59:42;18.83;;;6.90;;
20322;SDS011;10319;52.206;20.996;2024-03-08T13:02:07;18.90;;;7.10;;
20322;SDS011;10319;52.206;20.996;2024-03-08T13:04:36;17.77;;;7.00;;
20322;SDS011;10319;52.206;20.996;2024-03-08T13:07:01;18.03;;;6.93;;
20322;SDS011;10319;52.206;20.996;2024-03-08T13:09:26;16.83;;;6.20;;
20322;SDS011;10319;52.206;20.996;2024-03-08T13:11:52;16.00;;;6.50;;
20322;SDS011;10319;52.206;20.996;2024-03-08T13:14:20;17.03;;;6.07;;
20322;SDS011;10319;52.206;20.996;2024-03-08T13:16:45;19.57;;;6.63;;
20322;SDS011;10319;52.206;20.996;2024-03-08T13:19:12;16.40;;;6.40;;
20322;SDS011;10319;52.206;20.996;2024-03-08T13:21:38;16.20;;;6.20;;
20322;SDS011;10319;52.206;20.996;2024-03-08T13:24:05;17.40;;;5.67;;
20322;SDS011;10319;52.206;20.996;2024-03-08T13:26:31;16.80;;;6.00;;
20322;SDS011;10319;52.206;20.996;2024-03-08T13:28:58;16.50;;;5.90;;
20322;SDS011;10319;52.206;20.996;2024-03-08T13:31:24;17.00;;;6.03;;
20322;SDS011;10319;52.206;20.996;2024-03-08T13:33:49;18.35;;;6.85;;
20322;SDS011;10319;52.206;20.996;2024-03-08T13:36:16;18.05;;;6.78;;
20322;SDS011;10319;52.206;20.996;2024-03-08T13:38:45;17.43;;;6.13;;
20322;SDS011;10319;52.206;20.996;2024-03-08T13:41:10;16.98;;;6.28;;
20322;SDS011;10319;52.206;20.996;2024-03-08T13:43:37;17.38;;;6.35;;
20322;SDS011;10319;52.206;20.996;2024-03-08T13:46:02;17.60;;;6.07;;
20322;SDS011;10319;52.206;20.996;2024-03-08T13:48:27;18.38;;;6.00;;
20322;SDS011;10319;52.206;20.996;2024-03-08T13:50:53;16.40;;;5.00;;
20322;SDS011;10319;52.206;20.996;2024-03-08T13:53:18;13.82;;;4.30;;
20322;SDS011;10319;52.206;20.996;2024-03-08T13:55:46;15.38;;;4.47;;
20322;SDS011;10319;52.206;20.996;2024-03-08T13:58:11;14.60;;;4.43;;
20322;SDS011;10319;52.206;20.996;2024-03-08T14:00:38;14.40;;;4.57;;
20322;SDS011;10319;52.206;20.996;2024-03-08T14:03:06;13.65;;;4.07;;
20322;SDS011;10319;52.206;20.996;2024-03-08T14:05:31;12.82;;;4.10;;
20322;SDS011;10319;52.206;20.996;2024-03-08T14:07:59;14.73;;;4.57;;
20322;SDS011;10319;52.206;20.996;2024-03-08T14:10:26;16.33;;;5.25;;
20322;SDS011;10319;52.206;20.996;2024-03-08T14:12:52;16.08;;;5.68;;
20322;SDS011;10319;52.206;20.996;2024-03-08T14:15:17;18.13;;;6.38;;
20322;SDS011;10319;52.206;20.996;2024-03-08T14:17:42;15.00;;;4.93;;